Time;durP1;ratioP1;P1;durP2;ratioP2;P2;SDS_P1;SDS_P2;PMS_P1;PMS_P2;Temp;Humidity;BMP_temperature;BMP_pressure;BME280_temperature;BME280_humidity;BME280_pressure;Samples;Min_cycle;Max_cycle;Signal;HPM_P1;HPM_P2
2021/03/24 00:00:40;;;;;;;3.4;2.2;;;;;;;;;;;;;
2021/03/24 00:03:06;;;;;;;3.6;2.6;;;;;;;;;;;;;
2021/03/24 00:05:31;;;;;;;4.1;2.2;;;;;;;;;;;;;
2021/03/24 00:07:57;;;;;;;3.9;1.6;;;;;;;;;;;;;
2021/03/24 00:10:22;;;;;;;2.3;1.9;;;;;;;;;;;;;
2021/03/24 00:12:51;;;;;;;2.4;1.8;;;;;;;;;;;;;
2021/03/24 00:15:16;;;;;;;2.2;1.6;;;;;;;;;;;;;
2021/03/24 00:17:41;;;;;;;3.9;2.4;;;;;;;;;;;;;
2021/03/24 00:20:07;;;;;;;2;1.5;;;;;;;;;;;;;
2021/03/24 00:22:33;;;;;;;3.1;1.9;;;;;;;;;;;;;
2021/03/24 00:24:58;;;;;;;2.2;1.7;;;;;;;;;;;;;
2021/03/24 00:27:23;;;;;;;5.4;1.8;;;;;;;;;;;;;
2021/03/24 00:29:48;;;;;;;7.7;3;;;;;;;;;;;;;
2021/03/24 00:32:15;;;;;;;4.5;2.2;;;;;;;;;;;;;
2021/03/24 00:34:40;;;;;;;2.9;1.8;;;;;;;;;;;;;
2021/03/24 00:37:06;;;;;;;3.1;2.4;;;;;;;;;;;;;
2021/03/24 00:39:31;;;;;;;2.1;1.7;;;;;;;;;;;;;
2021/03/24 00:41:56;;;;;;;2.9;2;;;;;;;;;;;;;
2021/03/24 00:44:21;;;;;;;3.2;2.3;;;;;;;;;;;;;
2021/03/24 00:46:46;;;;;;;6.1;2.1;;;;;;;;;;;;;
2021/03/24 00:49:12;;;;;;;4.1;1.8;;;;;;;;;;;;;
2021/03/24 00:51:37;;;;;;;2.2;1.7;;;;;;;;;;;;;
2021/03/24 00:54:03;;;;;;;2.8;1.9;;;;;;;;;;;;;
2021/03/24 00:56:28;;;;;;;1.5;1.4;;;;;;;;;;;;;
2021/03/24 00:58:54;;;;;;;2.6;2.2;;;;;;;;;;;;;
2021/03/24 01:01:21;;;;;;;3.9;2.6;;;;;;;;;;;;;
2021/03/24 01:03:45;;;;;;;5.3;3.1;;;;;;;;;;;;;
2021/03/24 01:06:10;;;;;;;1.8;1.4;;;;;;;;;;;;;
2021/03/24 01:08:37;;;;;;;3.6;1.5;;;;;;;;;;;;;
2021/03/24 01:11:02;;;;;;;4;1.9;;;;;;;;;;;;;
2021/03/24 01:13:29;;;;;;;3.4;2.1;;;;;;;;;;;;;
2021/03/24 01:15:55;;;;;;;2.4;1.8;;;;;;;;;;;;;
2021/03/24 01:18:21;;;;;;;2.7;2;;;;;;;;;;;;;
2021/03/24 01:20:46;;;;;;;9.5;2;;;;;;;;;;;;;
2021/03/24 01:23:12;;;;;;;6.7;2.2;;;;;;;;;;;;;
2021/03/24 01:25:37;;;;;;;4.8;1.8;;;;;;;;;;;;;
2021/03/24 01:28:03;;;;;;;1.9;1.7;;;;;;;;;;;;;
2021/03/24 01:30:28;;;;;;;4;2;;;;;;;;;;;;;
2021/03/24 01:32:56;;;;;;;1.7;1.5;;;;;;;;;;;;;
2021/03/24 01:35:21;;;;;;;3.6;1.9;;;;;;;;;;;;;
2021/03/24 01:37:46;;;;;;;3.2;1.2;;;;;;;;;;;;;
2021/03/24 01:40:11;;;;;;;1.7;1.4;;;;;;;;;;;;;
2021/03/24 01:42:37;;;;;;;4.3;1.6;;;;;;;;;;;;;
2021/03/24 01:45:02;;;;;;;3;1.7;;;;;;;;;;;;;
2021/03/24 01:47:27;;;;;;;1.7;1.2;;;;;;;;;;;;;
2021/03/24 01:49:54;;;;;;;3.6;2;;;;;;;;;;;;;
2021/03/24 01:52:19;;;;;;;2;1.6;;;;;;;;;;;;;
2021/03/24 01:54:45;;;;;;;3.3;2;;;;;;;;;;;;;
2021/03/24 01:57:10;;;;;;;2.5;1.6;;;;;;;;;;;;;
2021/03/24 01:59:36;;;;;;;4.6;2;;;;;;;;;;;;;
2021/03/24 02:02:01;;;;;;;3.5;2.6;;;;;;;;;;;;;
2021/03/24 02:04:28;;;;;;;5.3;3.6;;;;;;;;;;;;;
2021/03/24 02:06:53;;;;;;;6.4;3.2;;;;;;;;;;;;;
2021/03/24 02:09:18;;;;;;;4.1;2.8;;;;;;;;;;;;;
2021/03/24 02:11:43;;;;;;;3.5;2.4;;;;;;;;;;;;;
2021/03/24 02:14:08;;;;;;;6.6;2;;;;;;;;;;;;;
2021/03/24 02:16:34;;;;;;;5.2;1.9;;;;;;;;;;;;;
2021/03/24 02:19:00;;;;;;;2.7;1.9;;;;;;;;;;;;;
2021/03/24 02:21:26;;;;;;;4.8;2.5;;;;;;;;;;;;;
2021/03/24 02:23:51;;;;;;;2.2;1.8;;;;;;;;;;;;;
2021/03/24 02:26:16;;;;;;;2.5;1.9;;;;;;;;;;;;;
2021/03/24 02:28:44;;;;;;;2.1;1.9;;;;;;;;;;;;;
2021/03/24 02:31:10;;;;;;;4.7;1.8;;;;;;;;;;;;;
2021/03/24 02:33:34;;;;;;;1.9;1.5;;;;;;;;;;;;;
2021/03/24 02:36:00;;;;;;;6.8;1.4;;;;;;;;;;;;;
2021/03/24 02:38:25;;;;;;;1.4;1.2;;;;;;;;;;;;;
2021/03/24 02:40:50;;;;;;;2.2;2;;;;;;;;;;;;;
2021/03/24 02:43:15;;;;;;;6.9;1.8;;;;;;;;;;;;;
2021/03/24 02:45:40;;;;;;;2.6;2.2;;;;;;;;;;;;;
2021/03/24 02:48:06;;;;;;;3.1;1.9;;;;;;;;;;;;;
2021/03/24 02:50:31;;;;;;;4.9;1.7;;;;;;;;;;;;;
2021/03/24 02:52:57;;;;;;;2;1.7;;;;;;;;;;;;;
2021/03/24 02:55:22;;;;;;;2.4;1.5;;;;;;;;;;;;;
2021/03/24 02:57:48;;;;;;;1.7;1.4;;;;;;;;;;;;;
2021/03/24 03:00:13;;;;;;;1.7;1.3;;;;;;;;;;;;;
2021/03/24 03:02:39;;;;;;;3.2;1.4;;;;;;;;;;;;;
2021/03/24 03:05:04;;;;;;;5;1.1;;;;;;;;;;;;;
2021/03/24 03:07:31;;;;;;;1.3;1.1;;;;;;;;;;;;;
2021/03/24 03:09:56;;;;;;;2.1;1.3;;;;;;;;;;;;;
2021/03/24 03:12:22;;;;;;;2.5;1.7;;;;;;;;;;;;;
2021/03/24 03:14:48;;;;;;;1.3;0.8;;;;;;;;;;;;;
2021/03/24 03:17:14;;;;;;;2.6;1.6;;;;;;;;;;;;;
2021/03/24 03:19:39;;;;;;;1.7;1;;;;;;;;;;;;;
2021/03/24 03:22:05;;;;;;;1;0.9;;;;;;;;;;;;;
2021/03/24 03:24:30;;;;;;;1.9;1.7;;;;;;;;;;;;;
2021/03/24 03:26:55;;;;;;;0.8;0.8;;;;;;;;;;;;;
2021/03/24 03:29:21;;;;;;;1.4;1.3;;;;;;;;;;;;;
2021/03/24 03:31:47;;;;;;;1.3;1.1;;;;;;;;;;;;;
2021/03/24 03:34:13;;;;;;;5;1.9;;;;;;;;;;;;;
2021/03/24 03:36:38;;;;;;;2.8;1.1;;;;;;;;;;;;;
2021/03/24 03:39:04;;;;;;;1.1;1;;;;;;;;;;;;;
2021/03/24 03:41:31;;;;;;;4.5;1.8;;;;;;;;;;;;;
2021/03/24 03:43:56;;;;;;;1.7;1.2;;;;;;;;;;;;;
2021/03/24 03:46:21;;;;;;;5.7;2.4;;;;;;;;;;;;;
2021/03/24 03:48:46;;;;;;;3.3;2.2;;;;;;;;;;;;;
2021/03/24 03:51:12;;;;;;;2.7;1.9;;;;;;;;;;;;;
2021/03/24 03:53:37;;;;;;;3.2;1.5;;;;;;;;;;;;;
2021/03/24 03:56:02;;;;;;;2.5;1.9;;;;;;;;;;;;;
2021/03/24 03:58:29;;;;;;;4.1;2.1;;;;;;;;;;;;;
2021/03/24 04:02:32;;;;;;;1.9;1.7;;;;;;;-0.98;87.08594;944.9651;;;;
2021/03/24 04:04:57;;;;;;;3.3;2;;;;;;;-0.98;86.93066;944.9317;;;;
2021/03/24 04:07:23;;;;;;;2.4;1.6;;;;;;;-0.89;86.26953;944.9478;;;;
2021/03/24 04:09:48;;;;;;;1.6;1.5;;;;;;;-0.99;86.27246;944.9364;;;;
2021/03/24 04:12:14;;;;;;;3.6;2;;;;;;;-1.01;86.81348;944.9536;;;;
2021/03/24 04:14:38;;;;;;;2.1;1.3;;;;;;;-0.93;86.48633;944.9808;;;;
2021/03/24 04:17:09;;;;;;;2;1.4;;;;;;;-0.89;86.19141;945.0244;;;;
2021/03/24 04:19:34;;;;;;;2.4;1.6;;;;;;;-0.82;85.79492;945.0407;;;;
2021/03/24 04:21:59;;;;;;;2;1.8;;;;;;;-0.78;85.31445;945.0344;;;;
2021/03/24 04:24:24;;;;;;;2.4;1.4;;;;;;;-0.82;84.81836;945.0284;;;;
2021/03/24 04:26:49;;;;;;;1;1;;;;;;;-0.93;84.94043;945.1144;;;;
2021/03/24 04:29:14;;;;;;;1.7;1.5;;;;;;;-0.9;85.00195;945.0991;;;;
2021/03/24 04:31:40;;;;;;;3.3;1.8;;;;;;;-0.92;84.95215;945.0837;;;;
2021/03/24 04:34:05;;;;;;;1.9;1.1;;;;;;;-0.82;84.77148;945.0475;;;;
2021/03/24 04:36:30;;;;;;;0.8;0.8;;;;;;;-0.81;84.55273;945.1164;;;;
2021/03/24 04:38:55;;;;;;;1.3;1.1;;;;;;;-0.79;84.60352;945.1027;;;;
2021/03/24 04:41:20;;;;;;;2.3;1.9;;;;;;;-1;85.08008;945.0408;;;;
2021/03/24 04:43:45;;;;;;;3.3;1.8;;;;;;;-1.14;85.61035;945.1821;;;;
2021/03/24 04:46:10;;;;;;;3.4;1.9;;;;;;;-1.25;86.15234;945.2081;;;;
2021/03/24 04:48:35;;;;;;;3.1;2.3;;;;;;;-1.25;86.84082;945.2231;;;;
2021/03/24 04:51:00;;;;;;;2.8;1.7;;;;;;;-1.25;86.89844;945.2562;;;;
2021/03/24 04:53:26;;;;;;;3;2.3;;;;;;;-1.35;87.07617;945.2606;;;;
2021/03/24 04:55:51;;;;;;;3.2;1.7;;;;;;;-1.24;86.84473;945.2841;;;;
2021/03/24 04:58:16;;;;;;;1.7;1.1;;;;;;;-1.26;87.03906;945.236;;;;
2021/03/24 05:00:46;;;;;;;1.2;1;;;;;;;-1.26;86.79492;945.2449;;;;
2021/03/24 05:03:11;;;;;;;3.3;1.3;;;;;;;-1.23;86.55566;945.2619;;;;
2021/03/24 05:05:40;;;;;;;2.9;1.6;;;;;;;-1.26;86.61719;945.3084;;;;
2021/03/24 05:08:04;;;;;;;1.8;1.5;;;;;;;-1.17;86.5918;945.2964;;;;
2021/03/24 05:10:30;;;;;;;4.1;2.2;;;;;;;-1.14;86.70996;945.3197;;;;
2021/03/24 05:12:55;;;;;;;2.7;1.6;;;;;;;-1.11;86.42676;945.3028;;;;
2021/03/24 05:15:28;;;;;;;5.8;2.4;;;;;;;-1.12;86.29004;945.2722;;;;
2021/03/24 05:17:53;;;;;;;3;1.7;;;;;;;-1.07;86.02246;945.2692;;;;
2021/03/24 05:20:20;;;;;;;2.8;1.4;;;;;;;-1.07;85.86914;945.3298;;;;
2021/03/24 05:22:45;;;;;;;6.9;1.5;;;;;;;-1.01;85.63574;945.4044;;;;
2021/03/24 05:25:15;;;;;;;3.2;1.9;;;;;;;-1.07;85.50098;945.4239;;;;
2021/03/24 05:27:40;;;;;;;3.9;2.5;;;;;;;-1.06;85.26953;945.4529;;;;
2021/03/24 05:30:05;;;;;;;2.8;1.8;;;;;;;-1.03;85.18555;945.45;;;;
2021/03/24 05:32:30;;;;;;;4.1;2.5;;;;;;;-1.02;84.79883;945.4669;;;;
2021/03/24 05:34:55;;;;;;;3.5;2.5;;;;;;;-1.14;85.08594;945.4835;;;;
2021/03/24 05:37:22;;;;;;;4.4;2;;;;;;;-1.33;86.125;945.3709;;;;
2021/03/24 05:39:47;;;;;;;2.2;1.6;;;;;;;-1.34;86.81152;945.4734;;;;
2021/03/24 05:42:16;;;;;;;2.5;1.5;;;;;;;-1.26;86.63965;945.4949;;;;
2021/03/24 05:44:41;;;;;;;1.9;1.7;;;;;;;-1.21;86.49512;945.5251;;;;
2021/03/24 05:47:06;;;;;;;1.1;1;;;;;;;-1.03;86.06348;945.5488;;;;
2021/03/24 05:49:33;;;;;;;1.2;1.1;;;;;;;-0.76;85.5293;945.4973;;;;
2021/03/24 05:51:58;;;;;;;3.1;1.6;;;;;;;-0.76;84.78613;945.5561;;;;
2021/03/24 05:54:24;;;;;;;2.4;1.7;;;;;;;-0.52;84.80078;945.5826;;;;
2021/03/24 05:56:49;;;;;;;4.2;2.7;;;;;;;0.03;83.62988;945.5854;;;;
2021/03/24 05:59:15;;;;;;;2.2;1.7;;;;;;;0.68;80.86719;945.5;;;;
2021/03/24 06:01:40;;;;;;;3.1;2;;;;;;;1.5;78.66797;945.4888;;;;
2021/03/24 06:04:05;;;;;;;0.9;0.9;;;;;;;1.99;75.42285;945.532;;;;
2021/03/24 06:06:30;;;;;;;2.4;1.7;;;;;;;2.28;73.11133;945.4836;;;;
2021/03/24 06:08:55;;;;;;;3.9;1.6;;;;;;;2.98;70.46191;945.478;;;;
2021/03/24 06:11:24;;;;;;;5.3;3.4;;;;;;;3.8;67.68652;945.4275;;;;
2021/03/24 06:13:49;;;;;;;2.9;2.2;;;;;;;4.5;63.96777;945.4412;;;;
2021/03/24 06:16:14;;;;;;;5.2;1.9;;;;;;;4.44;63.67969;945.4301;;;;
2021/03/24 06:18:39;;;;;;;5.9;2.3;;;;;;;5.14;61.34863;945.4197;;;;
2021/03/24 06:21:05;;;;;;;2.1;1.5;;;;;;;5.44;59.72168;945.4117;;;;
2021/03/24 06:23:30;;;;;;;2.9;1.9;;;;;;;5.74;58.96289;945.424;;;;
2021/03/24 06:25:55;;;;;;;7.4;2.1;;;;;;;6.6;56.53418;945.3434;;;;
2021/03/24 06:28:20;;;;;;;4.6;2.5;;;;;;;6.94;56.89648;945.3958;;;;
2021/03/24 06:30:45;;;;;;;6.2;2;;;;;;;7.24;54.55664;945.3476;;;;
2021/03/24 06:33:13;;;;;;;2.7;2.1;;;;;;;6.97;54.46484;945.4132;;;;
2021/03/24 06:35:38;;;;;;;3.2;1.9;;;;;;;7.47;53.75879;945.3627;;;;
2021/03/24 06:38:03;;;;;;;2.3;1;;;;;;;7.72;52.46191;945.3209;;;;
2021/03/24 06:40:32;;;;;;;1.9;1.4;;;;;;;7.42;53.44531;945.3571;;;;
2021/03/24 06:42:56;;;;;;;4.5;2.1;;;;;;;6.6;55.56055;945.4256;;;;
2021/03/24 06:45:22;;;;;;;2.6;1.1;;;;;;;7.12;55.05078;945.4092;;;;
2021/03/24 06:47:47;;;;;;;0.9;0.8;;;;;;;7.52;53.60645;945.3533;;;;
2021/03/24 06:50:12;;;;;;;3.1;1.1;;;;;;;7.86;52.35449;945.3128;;;;
2021/03/24 06:52:37;;;;;;;7.6;0.6;;;;;;;8.48;50.36133;945.3603;;;;
2021/03/24 06:55:03;;;;;;;0.8;0.7;;;;;;;9.13;49.35742;945.3845;;;;
2021/03/24 06:57:28;;;;;;;0.9;0.6;;;;;;;9.12;49.18457;945.3422;;;;
2021/03/24 06:59:53;;;;;;;2.7;0.8;;;;;;;8.09;50.95215;945.3051;;;;
2021/03/24 07:02:19;;;;;;;1.2;0.8;;;;;;;7.39;53.78223;945.3225;;;;
2021/03/24 07:04:44;;;;;;;0.7;0.5;;;;;;;7.33;54.23926;945.3761;;;;
2021/03/24 07:07:09;;;;;;;2.1;1.4;;;;;;;7.49;53.94238;945.3569;;;;
2021/03/24 07:09:34;;;;;;;0.8;0.6;;;;;;;7.76;52.74023;945.4023;;;;
2021/03/24 07:11:59;;;;;;;5.3;2.4;;;;;;;8.04;52.25195;945.3553;;;;
2021/03/24 07:14:25;;;;;;;5.6;3.4;;;;;;;7.17;54.33301;945.3278;;;;
2021/03/24 07:16:52;;;;;;;4;2.9;;;;;;;7.6;53.21875;945.3326;;;;
2021/03/24 07:19:17;;;;;;;10.9;6.5;;;;;;;6.85;55.4248;945.3563;;;;
2021/03/24 07:21:42;;;;;;;13.7;8.3;;;;;;;7.22;54.69043;945.2964;;;;
2021/03/24 07:24:07;;;;;;;10.3;5.4;;;;;;;8.13;52.6709;945.3212;;;;
2021/03/24 07:26:34;;;;;;;13;7.9;;;;;;;8.31;52.10449;945.3605;;;;
2021/03/24 07:28:59;;;;;;;26.4;10.6;;;;;;;9.28;48.61133;945.2679;;;;
2021/03/24 07:31:25;;;;;;;10.1;4.2;;;;;;;8.42;49.16211;945.3195;;;;
2021/03/24 07:33:50;;;;;;;16.6;8.8;;;;;;;7.55;52.46484;945.3106;;;;
2021/03/24 07:36:15;;;;;;;2.8;1.9;;;;;;;7.77;52.37793;945.3962;;;;
2021/03/24 07:38:42;;;;;;;1.1;1;;;;;;;8.06;52.51563;945.2361;;;;
2021/03/24 07:41:07;;;;;;;4.6;2.6;;;;;;;8.67;50.58984;945.335;;;;
2021/03/24 07:43:33;;;;;;;17.2;9.8;;;;;;;8.52;50.48047;945.3351;;;;
2021/03/24 07:45:58;;;;;;;7;3.5;;;;;;;9.99;48.0752;945.3057;;;;
2021/03/24 07:48:24;;;;;;;0.7;0.7;;;;;;;11.56;44.95508;945.2478;;;;
2021/03/24 07:50:49;;;;;;;1;0.5;;;;;;;11.92;43.35352;945.3088;;;;
2021/03/24 07:53:14;;;;;;;31.5;16;;;;;;;12.43;41.50098;945.1756;;;;
2021/03/24 07:55:39;;;;;;;5;3.6;;;;;;;12.9;41.20117;945.2492;;;;
2021/03/24 07:58:04;;;;;;;0.9;0.7;;;;;;;14.19;38.18066;945.2424;;;;
2021/03/24 08:00:34;;;;;;;1.1;0.6;;;;;;;15.25;35.04102;945.1996;;;;
2021/03/24 08:03:00;;;;;;;1;0.4;;;;;;;15.53;35.81445;945.1588;;;;
2021/03/24 08:05:25;;;;;;;3.6;2.2;;;;;;;15.39;33.91016;945.1663;;;;
2021/03/24 08:07:50;;;;;;;1;0.7;;;;;;;15.08;35.7666;945.1459;;;;
2021/03/24 08:10:15;;;;;;;0.3;0.3;;;;;;;15.54;35.40039;945.1355;;;;
2021/03/24 08:12:40;;;;;;;0.3;0.3;;;;;;;15.56;34.1084;945.1155;;;;
2021/03/24 08:15:05;;;;;;;0.3;0.3;;;;;;;15.37;34.80859;945.0859;;;;
2021/03/24 08:17:30;;;;;;;1;0.3;;;;;;;15.23;32.99609;945.092;;;;
2021/03/24 08:19:56;;;;;;;0.6;0.3;;;;;;;16.4;32.4375;945.0475;;;;
2021/03/24 08:22:35;;;;;;;1.9;0.8;;;;;;;17.58;31.7002;945.0323;;;;
2021/03/24 08:25:00;;;;;;;4.2;0.7;;;;;;;18.39;28.71387;945.0844;;;;
2021/03/24 08:27:27;;;;;;;0.8;0.6;;;;;;;17.8;30.89258;945.0773;;;;
2021/03/24 08:29:53;;;;;;;0.1;0.1;;;;;;;19.19;27.76465;944.988;;;;
2021/03/24 08:32:18;;;;;;;0.9;0.3;;;;;;;19.03;27.92871;944.9844;;;;
2021/03/24 08:34:43;;;;;;;0.1;0.1;;;;;;;15.72;31.99414;945.007;;;;
2021/03/24 08:37:09;;;;;;;0.4;0.3;;;;;;;18.41;28.36621;944.9737;;;;
2021/03/24 08:39:34;;;;;;;0.6;0.2;;;;;;;20.16;26.97266;944.9277;;;;
2021/03/24 08:42:00;;;;;;;0.5;0.3;;;;;;;18.26;27.1709;944.943;;;;
2021/03/24 08:44:25;;;;;;;2.6;0.7;;;;;;;17.11;29.15137;944.8687;;;;
2021/03/24 08:46:51;;;;;;;0.6;0.4;;;;;;;18.97;30.20605;944.8582;;;;
2021/03/24 08:49:15;;;;;;;9.8;0.9;;;;;;;20.41;26.06543;944.8155;;;;
2021/03/24 08:51:41;;;;;;;0.4;0.4;;;;;;;21.13;26.07324;944.7947;;;;
2021/03/24 08:54:06;;;;;;;0.2;0.2;;;;;;;22.36;23.41211;944.7935;;;;
2021/03/24 08:56:31;;;;;;;0.7;0.6;;;;;;;22.02;24.05078;944.7492;;;;
2021/03/24 08:58:58;;;;;;;4.5;0.5;;;;;;;21.98;23.93164;944.7453;;;;
2021/03/24 09:01:23;;;;;;;0.8;0.5;;;;;;;23.42;23.83301;944.6749;;;;
2021/03/24 09:03:49;;;;;;;1.3;0.7;;;;;;;24.1;22.77344;944.6379;;;;
2021/03/24 09:06:14;;;;;;;0.4;0.3;;;;;;;24.55;22.33789;944.639;;;;
2021/03/24 09:08:40;;;;;;;0.4;0.3;;;;;;;25.02;20.92188;944.5637;;;;
2021/03/24 09:11:05;;;;;;;0.3;0.2;;;;;;;25.15;20.18359;944.5106;;;;
2021/03/24 09:13:30;;;;;;;1;0.5;;;;;;;23.58;21.95898;944.5111;;;;
2021/03/24 09:15:55;;;;;;;0.4;0.3;;;;;;;21.78;24.09668;944.5162;;;;
2021/03/24 09:18:21;;;;;;;0.1;0.1;;;;;;;22.53;22.88184;944.4842;;;;
2021/03/24 09:20:46;;;;;;;0.8;0.4;;;;;;;23.18;22.71484;944.4842;;;;
2021/03/24 09:23:11;;;;;;;0.1;0.1;;;;;;;23.48;20.26074;944.3959;;;;
2021/03/24 09:25:36;;;;;;;0.8;0.3;;;;;;;22.15;21.6543;944.3945;;;;
2021/03/24 09:28:01;;;;;;;1;0.5;;;;;;;21.53;23.7207;944.3937;;;;
2021/03/24 09:30:26;;;;;;;0.8;0.4;;;;;;;22.08;22.6123;944.389;;;;
2021/03/24 09:32:55;;;;;;;0.1;0.1;;;;;;;22.72;21.45898;944.3722;;;;
2021/03/24 09:35:20;;;;;;;0.1;0.1;;;;;;;22.5;22.22363;944.4272;;;;
2021/03/24 09:37:47;;;;;;;0.3;0.2;;;;;;;18.49;27.38281;944.411;;;;
2021/03/24 09:40:12;;;;;;;0.3;0.2;;;;;;;19.07;26.47656;944.3356;;;;
2021/03/24 09:42:37;;;;;;;0.8;0.4;;;;;;;21.12;23.55762;944.3412;;;;
2021/03/24 09:45:06;;;;;;;0.3;0.2;;;;;;;22.9;21.84375;944.2393;;;;
2021/03/24 09:47:27;;;;;;;1.3;0.3;;;;;;;23.78;20.99219;944.2174;;;;
2021/03/24 09:49:52;;;;;;;0.2;0.2;;;;;;;24.21;20.70703;944.2371;;;;
2021/03/24 09:52:17;;;;;;;0.2;0.2;;;;;;;20.02;26.52148;944.2354;;;;
2021/03/24 09:54:45;;;;;;;0.7;0.4;;;;;;;18.09;29.22852;944.3162;;;;
2021/03/24 09:57:11;;;;;;;0.5;0.2;;;;;;;18.3;28.60254;944.2363;;;;
2021/03/24 09:59:36;;;;;;;0.1;0.1;;;;;;;18.04;28.13281;944.2266;;;;
2021/03/24 10:02:01;;;;;;;0.9;0.3;;;;;;;19.57;25.65527;944.2097;;;;
2021/03/24 10:04:26;;;;;;;0.5;0.2;;;;;;;20.27;23.94434;944.1077;;;;
2021/03/24 10:06:51;;;;;;;0.3;0.2;;;;;;;21.22;23.16504;944.1228;;;;
2021/03/24 10:09:16;;;;;;;0.6;0.2;;;;;;;21.8;23.26563;944.0894;;;;
2021/03/24 10:11:42;;;;;;;5.1;0.5;;;;;;;22.12;23.49316;944.0544;;;;
2021/03/24 10:14:07;;;;;;;0.3;0.3;;;;;;;22.3;22.91699;944.085;;;;
2021/03/24 10:16:32;;;;;;;0.7;0.5;;;;;;;22.53;22.74121;944.0159;;;;
2021/03/24 10:19:02;;;;;;;0.7;0.5;;;;;;;22.27;22.98535;944.0478;;;;
2021/03/24 10:21:25;;;;;;;0.3;0.3;;;;;;;22.34;23.15332;944.0938;;;;
2021/03/24 10:23:50;;;;;;;0.9;0.2;;;;;;;21.81;24.05176;944.0533;;;;
2021/03/24 10:26:15;;;;;;;0.1;0.1;;;;;;;20.92;24.27246;944.0399;;;;
2021/03/24 10:28:41;;;;;;;0.7;0.2;;;;;;;20.73;25.04395;944.038;;;;
2021/03/24 10:31:06;;;;;;;0.4;0.3;;;;;;;19.47;25.97559;944.0695;;;;
2021/03/24 10:33:33;;;;;;;0.3;0.3;;;;;;;19.59;26.19238;944.0582;;;;
2021/03/24 10:35:58;;;;;;;2.6;0.2;;;;;;;20.47;25.60156;944.0073;;;;
2021/03/24 10:38:24;;;;;;;1.7;0.5;;;;;;;20.13;25.8623;944.0209;;;;
2021/03/24 10:40:49;;;;;;;0.2;0.1;;;;;;;20.84;26.10254;943.9931;;;;
2021/03/24 10:43:14;;;;;;;0.7;0.3;;;;;;;20.85;24.84082;943.9694;;;;
2021/03/24 10:45:43;;;;;;;0.4;0.3;;;;;;;21.14;24.80957;943.8978;;;;
2021/03/24 10:48:05;;;;;;;0.6;0.3;;;;;;;21.67;24.69922;943.9344;;;;
2021/03/24 10:50:30;;;;;;;0.2;0.2;;;;;;;21.22;25.78516;943.9446;;;;
2021/03/24 10:52:55;;;;;;;0.7;0.3;;;;;;;20.96;24.67188;943.9265;;;;
2021/03/24 10:55:21;;;;;;;0.4;0.2;;;;;;;20.94;25.75781;943.9536;;;;
2021/03/24 10:57:47;;;;;;;0.9;0.4;;;;;;;20.81;26.07715;943.9075;;;;
2021/03/24 11:00:14;;;;;;;0.3;0.3;;;;;;;21.17;26.21582;943.842;;;;
2021/03/24 11:02:39;;;;;;;1.5;0.5;;;;;;;19.13;28.26074;943.8625;;;;
2021/03/24 11:05:04;;;;;;;0.5;0.5;;;;;;;19.4;28.46484;943.8394;;;;
2021/03/24 11:07:29;;;;;;;0.8;0.6;;;;;;;19.52;27.2832;943.8136;;;;
2021/03/24 11:09:55;;;;;;;0.5;0.4;;;;;;;19.24;28.12891;943.7852;;;;
2021/03/24 11:12:21;;;;;;;0.8;0.5;;;;;;;19.51;27.92383;943.7417;;;;
2021/03/24 11:14:45;;;;;;;1.6;0.7;;;;;;;19.56;27.78711;943.759;;;;
2021/03/24 11:17:10;;;;;;;1.2;0.8;;;;;;;19.77;27.76465;943.7915;;;;
2021/03/24 11:19:35;;;;;;;0.8;0.6;;;;;;;20.3;26.77148;943.7584;;;;
2021/03/24 11:22:00;;;;;;;1.4;0.8;;;;;;;19.51;27.44629;943.7151;;;;
2021/03/24 11:24:26;;;;;;;4;0.3;;;;;;;19.52;27.03906;943.6972;;;;
2021/03/24 11:26:53;;;;;;;0.5;0.5;;;;;;;18.86;28.19727;943.682;;;;
2021/03/24 11:29:18;;;;;;;1.1;0.7;;;;;;;18.41;28.49414;943.7488;;;;
2021/03/24 11:31:43;;;;;;;0.4;0.3;;;;;;;18.94;28.2373;943.7043;;;;
2021/03/24 11:34:08;;;;;;;0.7;0.5;;;;;;;18.42;28.43652;943.6755;;;;
2021/03/24 11:36:33;;;;;;;1.3;0.7;;;;;;;18.74;28.39941;943.5994;;;;
2021/03/24 11:38:59;;;;;;;1.1;0.5;;;;;;;18.9;28.19922;943.5952;;;;
2021/03/24 11:41:26;;;;;;;1.1;0.7;;;;;;;19.96;27.14746;943.5831;;;;
2021/03/24 11:43:50;;;;;;;2.5;0.6;;;;;;;21.31;25.63867;943.577;;;;
2021/03/24 11:46:18;;;;;;;0.5;0.3;;;;;;;22.22;24.88281;943.5263;;;;
2021/03/24 11:48:44;;;;;;;2.3;1.1;;;;;;;21.55;24.99805;943.4936;;;;
2021/03/24 11:51:09;;;;;;;1.2;1.1;;;;;;;21.49;26.46875;943.5413;;;;
2021/03/24 11:53:37;;;;;;;0.8;0.7;;;;;;;22.53;24.80664;943.5238;;;;
2021/03/24 11:56:03;;;;;;;0.8;0.5;;;;;;;23.13;23.08887;943.4636;;;;
2021/03/24 11:58:28;;;;;;;1.1;0.7;;;;;;;24.04;22.8291;943.4886;;;;
2021/03/24 12:00:53;;;;;;;1.6;0.9;;;;;;;24.05;21.9707;943.4288;;;;
2021/03/24 12:03:18;;;;;;;1.4;0.9;;;;;;;24.68;22.12012;943.4277;;;;
2021/03/24 12:05:43;;;;;;;1.1;0.6;;;;;;;24.78;21.58203;943.4314;;;;
2021/03/24 12:08:09;;;;;;;1.7;1;;;;;;;25.05;22.32715;943.4645;;;;
2021/03/24 12:10:36;;;;;;;1.2;0.9;;;;;;;25.53;22.09082;943.4618;;;;
2021/03/24 12:13:00;;;;;;;0.7;0.5;;;;;;;26.25;21.07324;943.4341;;;;
2021/03/24 12:15:28;;;;;;;0.8;0.6;;;;;;;26.53;20.83789;943.4188;;;;
2021/03/24 12:17:52;;;;;;;1.4;1;;;;;;;26.39;20.07422;943.3725;;;;
2021/03/24 12:20:17;;;;;;;5.7;0.7;;;;;;;25.91;21.68457;943.3546;;;;
2021/03/24 12:22:43;;;;;;;3.1;0.5;;;;;;;26.34;20.8877;943.3158;;;;
2021/03/24 12:25:10;;;;;;;0.8;0.8;;;;;;;25.68;20.82227;943.3143;;;;
2021/03/24 12:27:35;;;;;;;0.7;0.5;;;;;;;23.8;22.62988;943.2958;;;;
2021/03/24 12:30:01;;;;;;;0.6;0.6;;;;;;;24.47;22.60449;943.1923;;;;
2021/03/24 12:32:28;;;;;;;1.1;0.6;;;;;;;25.26;21.29883;943.2356;;;;
2021/03/24 12:34:53;;;;;;;0.4;0.4;;;;;;;25.71;21.81543;943.2389;;;;
2021/03/24 12:37:18;;;;;;;1.3;0.4;;;;;;;25.24;21.29688;943.2089;;;;
2021/03/24 12:39:44;;;;;;;1.4;0.5;;;;;;;25.71;21.33105;943.1589;;;;
2021/03/24 12:42:10;;;;;;;0.6;0.6;;;;;;;25.92;21.4248;943.1771;;;;
2021/03/24 12:44:35;;;;;;;1.9;0.8;;;;;;;25.61;20.87793;943.1141;;;;
2021/03/24 12:47:01;;;;;;;1.2;0.8;;;;;;;26.03;20.75488;943.0658;;;;
2021/03/24 12:49:26;;;;;;;1.1;0.6;;;;;;;26.15;20.82031;943.0778;;;;
2021/03/24 12:51:51;;;;;;;1;0.4;;;;;;;26.24;20.93164;943.0914;;;;
2021/03/24 12:54:16;;;;;;;0.4;0.4;;;;;;;26.5;20.56445;943.0616;;;;
2021/03/24 12:56:43;;;;;;;1.2;0.8;;;;;;;26.28;20.51855;943.0449;;;;
2021/03/24 12:59:08;;;;;;;0.8;0.7;;;;;;;26.13;20.88965;942.9989;;;;
2021/03/24 13:01:36;;;;;;;1.2;0.6;;;;;;;26.37;20.52246;942.9897;;;;
2021/03/24 13:04:01;;;;;;;1.5;0.5;;;;;;;24.91;21.42285;942.9426;;;;
2021/03/24 13:06:28;;;;;;;1.1;0.6;;;;;;;25.11;21.68066;942.9584;;;;
2021/03/24 13:08:51;;;;;;;0.5;0.5;;;;;;;25.48;21.85254;942.9638;;;;
2021/03/24 13:11:17;;;;;;;0.8;0.6;;;;;;;24.97;21.99219;942.951;;;;
2021/03/24 13:13:42;;;;;;;0.4;0.4;;;;;;;24.92;21.97852;942.8766;;;;
2021/03/24 13:16:07;;;;;;;0.7;0.5;;;;;;;25.87;21.31543;942.9044;;;;
2021/03/24 13:18:32;;;;;;;1.9;0.6;;;;;;;26.18;20.56152;942.8169;;;;
2021/03/24 13:20:57;;;;;;;0.4;0.4;;;;;;;25.47;21.24902;942.8475;;;;
2021/03/24 13:23:22;;;;;;;0.3;0.3;;;;;;;26.25;21.2627;942.7603;;;;
2021/03/24 13:25:48;;;;;;;0.5;0.4;;;;;;;25.83;20.3916;942.7378;;;;
2021/03/24 13:28:14;;;;;;;1.5;0.8;;;;;;;25.65;21.43555;942.7293;;;;
2021/03/24 13:30:40;;;;;;;2.2;0.7;;;;;;;26.57;20.23633;942.7073;;;;
2021/03/24 13:33:05;;;;;;;0.5;0.3;;;;;;;25.92;21.49512;942.6713;;;;
2021/03/24 13:35:30;;;;;;;0.2;0.2;;;;;;;26;21.20313;942.6671;;;;
2021/03/24 13:37:55;;;;;;;5.2;0.4;;;;;;;24.64;21.49316;942.6791;;;;
2021/03/24 13:40:21;;;;;;;0.3;0.3;;;;;;;24.05;22.90137;942.6932;;;;
2021/03/24 13:42:46;;;;;;;0.6;0.3;;;;;;;24.39;22.45898;942.6838;;;;
2021/03/24 13:45:11;;;;;;;0.3;0.3;;;;;;;24.77;22.06543;942.6686;;;;
2021/03/24 13:47:36;;;;;;;3.2;0.5;;;;;;;25.08;21.96289;942.6368;;;;
2021/03/24 13:50:01;;;;;;;2.1;0.4;;;;;;;24.69;21.7666;942.5958;;;;
2021/03/24 13:52:26;;;;;;;1.9;0.6;;;;;;;24.05;22.87793;942.5979;;;;
2021/03/24 13:54:53;;;;;;;0.5;0.3;;;;;;;23.76;23.40332;942.5833;;;;
2021/03/24 13:57:18;;;;;;;0.3;0.2;;;;;;;23.7;23.30664;942.5756;;;;
2021/03/24 13:59:43;;;;;;;3.1;0.5;;;;;;;24.08;23.06738;942.5416;;;;
2021/03/24 14:02:08;;;;;;;0.5;0.3;;;;;;;23.96;22.95508;942.552;;;;
2021/03/24 14:04:33;;;;;;;2.9;1;;;;;;;23.82;23.44238;942.508;;;;
2021/03/24 14:07:00;;;;;;;0.8;0.4;;;;;;;23.99;23.13281;942.5249;;;;
2021/03/24 14:09:26;;;;;;;0.1;0.1;;;;;;;24.02;23.19434;942.4205;;;;
2021/03/24 14:11:51;;;;;;;0.5;0.2;;;;;;;23.67;23.48145;942.4553;;;;
2021/03/24 14:14:16;;;;;;;1.1;0.5;;;;;;;23.2;23.62109;942.492;;;;
2021/03/24 14:16:41;;;;;;;0.4;0.2;;;;;;;21.63;25.35352;942.4342;;;;
2021/03/24 14:19:06;;;;;;;0.3;0.3;;;;;;;21.45;25.5293;942.4663;;;;
2021/03/24 14:21:31;;;;;;;0.9;0.4;;;;;;;21.53;25.6748;942.4106;;;;
2021/03/24 14:23:57;;;;;;;0.6;0.4;;;;;;;21.39;26.49805;942.3798;;;;
2021/03/24 14:26:21;;;;;;;0.6;0.2;;;;;;;21.29;26.49219;942.3323;;;;
2021/03/24 14:28:48;;;;;;;1;0.6;;;;;;;20.08;27.13184;942.3795;;;;
2021/03/24 14:31:13;;;;;;;1.1;0.3;;;;;;;19.2;28.61523;942.3008;;;;
2021/03/24 14:33:39;;;;;;;0.9;0.3;;;;;;;18.67;30.01074;942.3652;;;;
2021/03/24 14:36:04;;;;;;;0.9;0.5;;;;;;;18.27;30.46094;942.3088;;;;
2021/03/24 14:38:29;;;;;;;0.7;0.4;;;;;;;17.84;31.35938;942.28;;;;
2021/03/24 14:40:54;;;;;;;2.1;0.6;;;;;;;17.6;31.92285;942.2874;;;;
2021/03/24 14:43:19;;;;;;;3;0.7;;;;;;;17.33;31.92676;942.3239;;;;
2021/03/24 14:45:50;;;;;;;0.4;0.4;;;;;;;16.96;33.34766;942.202;;;;
2021/03/24 14:48:15;;;;;;;0.4;0.3;;;;;;;16.79;33.79785;942.3239;;;;
2021/03/24 14:50:40;;;;;;;2.9;0.8;;;;;;;16.48;33.55469;942.2941;;;;
2021/03/24 14:53:05;;;;;;;0.2;0.2;;;;;;;16.02;34.57129;942.2456;;;;
2021/03/24 14:55:33;;;;;;;2.6;0.6;;;;;;;15.89;35.39355;942.197;;;;
2021/03/24 14:57:57;;;;;;;0.6;0.3;;;;;;;15.85;35.65625;942.2341;;;;
2021/03/24 15:00:22;;;;;;;0.6;0.3;;;;;;;15.73;35.55371;942.1982;;;;
2021/03/24 15:02:48;;;;;;;0.9;0.4;;;;;;;15.79;36.4248;942.2043;;;;
2021/03/24 15:05:13;;;;;;;0.4;0.3;;;;;;;15.72;35.76172;942.1774;;;;
2021/03/24 15:07:39;;;;;;;0.7;0.6;;;;;;;15.73;35.17188;942.1428;;;;
2021/03/24 15:10:04;;;;;;;1.3;0.4;;;;;;;15.58;35.20703;942.1685;;;;
2021/03/24 15:12:29;;;;;;;0.5;0.4;;;;;;;15.11;36.4834;942.1644;;;;
2021/03/24 15:14:55;;;;;;;2.4;0.3;;;;;;;14.93;36.63086;942.1763;;;;
2021/03/24 15:17:19;;;;;;;0.3;0.3;;;;;;;14.6;37.19141;942.2127;;;;
2021/03/24 15:19:46;;;;;;;0.7;0.3;;;;;;;14.49;37.73438;942.2031;;;;
2021/03/24 15:22:11;;;;;;;0.2;0.2;;;;;;;14.71;38.83691;942.1545;;;;
2021/03/24 15:24:37;;;;;;;1.3;0.5;;;;;;;14.76;37.64258;942.2042;;;;
2021/03/24 15:27:02;;;;;;;0.2;0.2;;;;;;;14.74;37.46777;942.1473;;;;
2021/03/24 15:29:27;;;;;;;0.9;0.6;;;;;;;14.65;38.90137;942.1938;;;;